sensor_id;sensor_type;location;lat;lon;timestamp;pressure;altitude;pressure_sealevel;temperature;humidity
77881;BME280;67077;50.298;18.996;2023-08-21T00:02:23;98487.84;;;22.50;72.84
77881;BME280;67077;50.298;18.996;2023-08-21T00:04:54;98487.25;;;22.47;73.09
77881;BME280;67077;50.298;18.996;2023-08-21T00:07:22;98484.98;;;22.43;73.42
77881;BME280;67077;50.298;18.996;2023-08-21T00:09:50;98485.56;;;22.41;73.77
77881;BME280;67077;50.298;18.996;2023-08-21T00:12:19;98482.15;;;22.37;73.92
77881;BME280;67077;50.298;18.996;2023-08-21T00:14:47;98477.33;;;22.33;74.18
77881;BME280;67077;50.298;18.996;2023-08-21T00:17:15;98481.76;;;22.30;74.33
77881;BME280;67077;50.298;18.996;2023-08-21T00:19:43;98484.05;;;22.27;74.33
77881;BME280;67077;50.298;18.996;2023-08-21T00:22:11;98479.12;;;22.21;74.70
77881;BME280;67077;50.298;18.996;2023-08-21T00:24:39;98477.95;;;22.15;75.11
77881;BME280;67077;50.298;18.996;2023-08-21T00:27:07;98473.75;;;22.07;75.26
77881;BME280;67077;50.298;18.996;2023-08-21T00:29:36;98471.98;;;22.01;75.65
77881;BME280;67077;50.298;18.996;2023-08-21T00:32:05;98471.64;;;21.96;76.12
77881;BME280;67077;50.298;18.996;2023-08-21T00:34:34;98471.23;;;21.92;76.40
77881;BME280;67077;50.298;18.996;2023-08-21T00:37:02;98470.68;;;21.90;76.29
77881;BME280;67077;50.298;18.996;2023-08-21T00:39:30;98469.41;;;21.88;76.61
77881;BME280;67077;50.298;18.996;2023-08-21T00:41:59;98467.77;;;21.86;76.64
77881;BME280;67077;50.298;18.996;2023-08-21T00:44:27;98462.94;;;21.84;76.66
77881;BME280;67077;50.298;18.996;2023-08-21T00:46:55;98464.77;;;21.82;76.95
77881;BME280;67077;50.298;18.996;2023-08-21T00:49:23;98464.56;;;21.81;76.99
77881;BME280;67077;50.298;18.996;2023-08-21T00:51:52;98472.05;;;21.80;76.90
77881;BME280;67077;50.298;18.996;2023-08-21T00:54:21;98474.33;;;21.78;77.22
77881;BME280;67077;50.298;18.996;2023-08-21T00:56:50;98477.58;;;21.74;77.43
77881;BME280;67077;50.298;18.996;2023-08-21T00:59:21;98482.27;;;21.71;77.68
77881;BME280;67077;50.298;18.996;2023-08-21T01:01:52;98485.73;;;21.69;77.78
77881;BME280;67077;50.298;18.996;2023-08-21T01:04:20;98483.45;;;21.66;78.09
77881;BME280;67077;50.298;18.996;2023-08-21T01:06:49;98480.13;;;21.62;78.18
77881;BME280;67077;50.298;18.996;2023-08-21T01:09:29;98483.42;;;21.59;78.52
77881;BME280;67077;50.298;18.996;2023-08-21T01:12:35;98488.78;;;21.53;78.90
77881;BME280;67077;50.298;18.996;2023-08-21T01:15:06;98490.67;;;21.47;78.99
77881;BME280;67077;50.298;18.996;2023-08-21T01:17:36;98485.67;;;21.43;79.39
77881;BME280;67077;50.298;18.996;2023-08-21T01:20:07;98487.54;;;21.41;79.40
77881;BME280;67077;50.298;18.996;2023-08-21T01:22:39;98485.52;;;21.39;79.63
77881;BME280;67077;50.298;18.996;2023-08-21T01:25:08;98481.89;;;21.37;79.94
77881;BME280;67077;50.298;18.996;2023-08-21T01:27:45;98487.73;;;21.34;80.19
77881;BME280;67077;50.298;18.996;2023-08-21T01:30:19;98486.49;;;21.30;80.27
77881;BME280;67077;50.298;18.996;2023-08-21T01:33:00;98480.75;;;21.25;80.60
77881;BME280;67077;50.298;18.996;2023-08-21T01:35:31;98482.45;;;21.22;80.77
77881;BME280;67077;50.298;18.996;2023-08-21T01:38:04;98482.58;;;21.19;81.05
77881;BME280;67077;50.298;18.996;2023-08-21T01:40:34;98479.78;;;21.16;81.03
77881;BME280;67077;50.298;18.996;2023-08-21T01:43:02;98480.94;;;21.15;81.13
77881;BME280;67077;50.298;18.996;2023-08-21T01:45:30;98482.64;;;21.14;81.28
77881;BME280;67077;50.298;18.996;2023-08-21T01:47:59;98475.42;;;21.12;81.40
77881;BME280;67077;50.298;18.996;2023-08-21T01:50:27;98472.08;;;21.12;81.40
77881;BME280;67077;50.298;18.996;2023-08-21T01:52:55;98468.50;;;21.11;81.61
77881;BME280;67077;50.298;18.996;2023-08-21T01:55:23;98466.46;;;21.12;81.61
77881;BME280;67077;50.298;18.996;2023-08-21T01:57:51;98469.42;;;21.12;81.53
77881;BME280;67077;50.298;18.996;2023-08-21T02:00:19;98468.61;;;21.11;81.79
77881;BME280;67077;50.298;18.996;2023-08-21T02:02:47;98477.25;;;21.10;82.15
77881;BME280;67077;50.298;18.996;2023-08-21T02:05:15;98474.02;;;21.07;82.24
77881;BME280;67077;50.298;18.996;2023-08-21T02:07:44;98475.73;;;21.02;82.31
77881;BME280;67077;50.298;18.996;2023-08-21T02:10:12;98474.73;;;20.95;82.74
77881;BME280;67077;50.298;18.996;2023-08-21T02:12:41;98473.84;;;20.86;82.79
77881;BME280;67077;50.298;18.996;2023-08-21T02:15:10;98470.09;;;20.79;83.01
77881;BME280;67077;50.298;18.996;2023-08-21T02:17:39;98469.55;;;20.74;83.20
77881;BME280;67077;50.298;18.996;2023-08-21T02:20:08;98468.02;;;20.70;83.34
77881;BME280;67077;50.298;18.996;2023-08-21T02:22:37;98466.48;;;20.68;83.70
77881;BME280;67077;50.298;18.996;2023-08-21T02:25:06;98465.75;;;20.65;83.61
77881;BME280;67077;50.298;18.996;2023-08-21T02:27:35;98461.41;;;20.62;83.52
77881;BME280;67077;50.298;18.996;2023-08-21T02:30:03;98460.65;;;20.60;83.95
77881;BME280;67077;50.298;18.996;2023-08-21T02:32:31;98456.54;;;20.59;83.99
77881;BME280;67077;50.298;18.996;2023-08-21T02:35:00;98455.05;;;20.58;83.70
77881;BME280;67077;50.298;18.996;2023-08-21T02:37:28;98450.12;;;20.57;83.92
77881;BME280;67077;50.298;18.996;2023-08-21T02:39:56;98446.71;;;20.54;83.62
77881;BME280;67077;50.298;18.996;2023-08-21T02:42:24;98445.13;;;20.53;83.75
77881;BME280;67077;50.298;18.996;2023-08-21T02:44:52;98441.55;;;20.53;83.89
77881;BME280;67077;50.298;18.996;2023-08-21T02:47:20;98437.41;;;20.52;83.82
77881;BME280;67077;50.298;18.996;2023-08-21T02:49:48;98438.46;;;20.51;83.98
77881;BME280;67077;50.298;18.996;2023-08-21T02:52:17;98435.59;;;20.51;83.93
77881;BME280;67077;50.298;18.996;2023-08-21T02:54:45;98436.31;;;20.50;84.01
77881;BME280;67077;50.298;18.996;2023-08-21T02:57:13;98438.34;;;20.50;84.36
77881;BME280;67077;50.298;18.996;2023-08-21T02:59:41;98440.54;;;20.49;84.10
77881;BME280;67077;50.298;18.996;2023-08-21T03:02:09;98437.35;;;20.48;84.49
77881;BME280;67077;50.298;18.996;2023-08-21T03:04:37;98440.93;;;20.48;84.50
77881;BME280;67077;50.298;18.996;2023-08-21T03:07:05;98442.47;;;20.46;84.52
77881;BME280;67077;50.298;18.996;2023-08-21T03:09:34;98441.11;;;20.43;84.46
77881;BME280;67077;50.298;18.996;2023-08-21T03:12:02;98444.04;;;20.40;84.66
77881;BME280;67077;50.298;18.996;2023-08-21T03:14:30;98444.52;;;20.37;84.58
77881;BME280;67077;50.298;18.996;2023-08-21T03:16:58;98448.90;;;20.35;84.46
77881;BME280;67077;50.298;18.996;2023-08-21T03:19:27;98448.91;;;20.33;84.42
77881;BME280;67077;50.298;18.996;2023-08-21T03:21:55;98457.64;;;20.31;84.62
77881;BME280;67077;50.298;18.996;2023-08-21T03:24:23;98460.39;;;20.28;84.61
77881;BME280;67077;50.298;18.996;2023-08-21T03:26:51;98463.25;;;20.26;84.51
77881;BME280;67077;50.298;18.996;2023-08-21T03:29:19;98466.05;;;20.25;84.45
77881;BME280;67077;50.298;18.996;2023-08-21T03:31:49;98465.45;;;20.23;84.56
77881;BME280;67077;50.298;18.996;2023-08-21T03:34:18;98468.23;;;20.22;84.54
77881;BME280;67077;50.298;18.996;2023-08-21T03:36:46;98469.36;;;20.20;84.58
77881;BME280;67077;50.298;18.996;2023-08-21T03:39:14;98463.71;;;20.19;84.44
77881;BME280;67077;50.298;18.996;2023-08-21T03:41:42;98460.86;;;20.19;84.55
77881;BME280;67077;50.298;18.996;2023-08-21T03:44:10;98457.12;;;20.18;84.63
77881;BME280;67077;50.298;18.996;2023-08-21T03:46:39;98458.17;;;20.20;84.76
77881;BME280;67077;50.298;18.996;2023-08-21T03:49:07;98457.73;;;20.21;84.91
77881;BME280;67077;50.298;18.996;2023-08-21T03:51:35;98456.71;;;20.23;84.62
77881;BME280;67077;50.298;18.996;2023-08-21T03:54:04;98451.50;;;20.25;84.66
77881;BME280;67077;50.298;18.996;2023-08-21T03:56:32;98453.14;;;20.27;84.53
77881;BME280;67077;50.298;18.996;2023-08-21T03:59:00;98454.23;;;20.29;84.55
77881;BME280;67077;50.298;18.996;2023-08-21T04:01:29;98460.05;;;20.32;84.60
77881;BME280;67077;50.298;18.996;2023-08-21T04:03:58;98462.36;;;20.35;84.50
77881;BME280;67077;50.298;18.996;2023-08-21T04:06:26;98459.73;;;20.37;84.55
77881;BME280;67077;50.298;18.996;2023-08-21T04:08:54;98457.55;;;20.40;84.37
77881;BME280;67077;50.298;18.996;2023-08-21T04:11:22;98459.39;;;20.43;84.35
77881;BME280;67077;50.298;18.996;2023-08-21T04:13:51;98464.33;;;20.47;84.03
77881;BME280;67077;50.298;18.996;2023-08-21T04:16:18;98465.38;;;20.54;83.97
77881;BME280;67077;50.298;18.996;2023-08-21T04:18:50;98468.45;;;20.70;83.68
77881;BME280;67077;50.298;18.996;2023-08-21T04:21:18;98464.71;;;20.84;83.43
77881;BME280;67077;50.298;18.996;2023-08-21T04:23:46;98461.67;;;20.93;82.88
77881;BME280;67077;50.298;18.996;2023-08-21T04:26:15;98457.59;;;20.97;82.89
77881;BME280;67077;50.298;18.996;2023-08-21T04:28:43;98453.15;;;21.01;82.85
77881;BME280;67077;50.298;18.996;2023-08-21T04:31:11;98448.67;;;21.05;82.39
77881;BME280;67077;50.298;18.996;2023-08-21T04:33:39;98446.30;;;21.09;82.56
77881;BME280;67077;50.298;18.996;2023-08-21T04:36:14;98444.15;;;21.11;82.45
77881;BME280;67077;50.298;18.996;2023-08-21T04:38:43;98443.48;;;21.23;82.31
77881;BME280;67077;50.298;18.996;2023-08-21T04:41:11;98446.45;;;21.44;81.70
77881;BME280;67077;50.298;18.996;2023-08-21T04:43:39;98446.23;;;21.67;81.22
77881;BME280;67077;50.298;18.996;2023-08-21T04:46:07;98449.80;;;21.94;80.31
77881;BME280;67077;50.298;18.996;2023-08-21T04:48:35;98452.20;;;22.18;79.57
77881;BME280;67077;50.298;18.996;2023-08-21T04:51:04;98453.81;;;22.33;78.80
77881;BME280;67077;50.298;18.996;2023-08-21T04:53:32;98452.67;;;22.44;78.37
77881;BME280;67077;50.298;18.996;2023-08-21T04:56:00;98455.70;;;22.54;78.34
77881;BME280;67077;50.298;18.996;2023-08-21T04:58:29;98462.14;;;22.60;78.02
77881;BME280;67077;50.298;18.996;2023-08-21T05:00:57;98462.06;;;22.62;77.75
77881;BME280;67077;50.298;18.996;2023-08-21T05:03:26;98460.86;;;22.61;77.85
77881;BME280;67077;50.298;18.996;2023-08-21T05:05:55;98459.25;;;22.57;77.90
77881;BME280;67077;50.298;18.996;2023-08-21T05:08:25;98462.10;;;22.52;77.77
77881;BME280;67077;50.298;18.996;2023-08-21T05:11:02;98460.45;;;22.52;78.05
77881;BME280;67077;50.298;18.996;2023-08-21T05:13:31;98456.91;;;22.51;78.02
77881;BME280;67077;50.298;18.996;2023-08-21T05:16:00;98465.61;;;22.55;78.04
77881;BME280;67077;50.298;18.996;2023-08-21T05:18:29;98468.39;;;22.64;77.57
77881;BME280;67077;50.298;18.996;2023-08-21T05:20:57;98468.45;;;22.72;77.07
77881;BME280;67077;50.298;18.996;2023-08-21T05:23:25;98469.20;;;22.82;76.97
77881;BME280;67077;50.298;18.996;2023-08-21T05:25:53;98467.02;;;22.92;76.49
77881;BME280;67077;50.298;18.996;2023-08-21T05:28:22;98465.23;;;23.01;76.21
77881;BME280;67077;50.298;18.996;2023-08-21T05:30:51;98469.27;;;23.11;75.96
77881;BME280;67077;50.298;18.996;2023-08-21T05:33:20;98470.92;;;23.20;75.66
77881;BME280;67077;50.298;18.996;2023-08-21T05:35:48;98476.67;;;23.31;75.63
77881;BME280;67077;50.298;18.996;2023-08-21T05:38:16;98479.10;;;23.39;75.50
77881;BME280;67077;50.298;18.996;2023-08-21T05:40:44;98481.19;;;23.47;75.29
77881;BME280;67077;50.298;18.996;2023-08-21T05:43:12;98483.94;;;23.52;74.98
77881;BME280;67077;50.298;18.996;2023-08-21T05:45:40;98483.06;;;23.56;74.65
77881;BME280;67077;50.298;18.996;2023-08-21T05:48:09;98483.98;;;23.61;74.26
77881;BME280;67077;50.298;18.996;2023-08-21T05:50:37;98485.55;;;23.64;73.90
77881;BME280;67077;50.298;18.996;2023-08-21T05:53:06;98489.14;;;23.67;73.82
77881;BME280;67077;50.298;18.996;2023-08-21T05:55:37;98490.20;;;23.70;73.35
77881;BME280;67077;50.298;18.996;2023-08-21T05:58:05;98491.66;;;23.72;72.95
77881;BME280;67077;50.298;18.996;2023-08-21T06:00:34;98492.56;;;23.71;72.68
77881;BME280;67077;50.298;18.996;2023-08-21T06:03:03;98490.29;;;23.71;72.45
77881;BME280;67077;50.298;18.996;2023-08-21T06:05:31;98492.65;;;23.72;72.44
77881;BME280;67077;50.298;18.996;2023-08-21T06:07:59;98495.36;;;23.71;72.30
77881;BME280;67077;50.298;18.996;2023-08-21T06:10:28;98499.08;;;23.70;71.95
77881;BME280;67077;50.298;18.996;2023-08-21T06:13:01;98506.89;;;23.69;71.96
77881;BME280;67077;50.298;18.996;2023-08-21T06:15:29;98511.88;;;23.67;72.08
77881;BME280;67077;50.298;18.996;2023-08-21T06:17:58;98512.46;;;23.65;72.15
77881;BME280;67077;50.298;18.996;2023-08-21T06:20:27;98520.60;;;23.63;72.52
77881;BME280;67077;50.298;18.996;2023-08-21T06:22:54;98526.05;;;23.60;72.33
77881;BME280;67077;50.298;18.996;2023-08-21T06:25:22;98536.23;;;23.54;72.27
77881;BME280;67077;50.298;18.996;2023-08-21T06:27:50;98534.44;;;23.47;72.56
77881;BME280;67077;50.298;18.996;2023-08-21T06:30:18;98530.40;;;23.41;72.59
77881;BME280;67077;50.298;18.996;2023-08-21T06:32:46;98538.96;;;23.35;72.70
77881;BME280;67077;50.298;18.996;2023-08-21T06:35:15;98548.00;;;23.25;72.32
77881;BME280;67077;50.298;18.996;2023-08-21T06:37:46;98550.77;;;23.12;72.59
77881;BME280;67077;50.298;18.996;2023-08-21T06:40:14;98551.42;;;23.01;73.02
77881;BME280;67077;50.298;18.996;2023-08-21T06:42:42;98544.63;;;22.89;73.17
77881;BME280;67077;50.298;18.996;2023-08-21T06:45:10;98546.98;;;22.81;73.63
77881;BME280;67077;50.298;18.996;2023-08-21T06:47:38;98555.03;;;22.73;73.75
77881;BME280;67077;50.298;18.996;2023-08-21T06:50:08;98559.48;;;22.65;74.02
77881;BME280;67077;50.298;18.996;2023-08-21T06:52:36;98557.77;;;22.59;74.30
77881;BME280;67077;50.298;18.996;2023-08-21T06:55:04;98560.65;;;22.56;74.61
77881;BME280;67077;50.298;18.996;2023-08-21T06:57:32;98566.85;;;22.53;74.91
77881;BME280;67077;50.298;18.996;2023-08-21T07:00:00;98562.88;;;22.51;75.20
77881;BME280;67077;50.298;18.996;2023-08-21T07:02:28;98565.42;;;22.49;75.29
77881;BME280;67077;50.298;18.996;2023-08-21T07:04:56;98570.58;;;22.45;75.56
77881;BME280;67077;50.298;18.996;2023-08-21T07:07:25;98574.02;;;22.43;75.69
77881;BME280;67077;50.298;18.996;2023-08-21T07:09:54;98576.84;;;22.40;75.93
77881;BME280;67077;50.298;18.996;2023-08-21T07:12:22;98570.19;;;22.39;76.23
77881;BME280;67077;50.298;18.996;2023-08-21T07:14:50;98572.84;;;22.36;76.36
77881;BME280;67077;50.298;18.996;2023-08-21T07:17:18;98573.88;;;22.34;76.48
77881;BME280;67077;50.298;18.996;2023-08-21T07:19:46;98579.00;;;22.34;76.50
77881;BME280;67077;50.298;18.996;2023-08-21T07:22:16;98581.27;;;22.35;76.60
77881;BME280;67077;50.298;18.996;2023-08-21T07:24:44;98576.42;;;22.37;76.80
77881;BME280;67077;50.298;18.996;2023-08-21T07:27:12;98573.39;;;22.36;76.92
77881;BME280;67077;50.298;18.996;2023-08-21T07:29:40;98575.45;;;22.31;77.10
77881;BME280;67077;50.298;18.996;2023-08-21T07:32:08;98577.57;;;22.27;77.48
77881;BME280;67077;50.298;18.996;2023-08-21T07:34:36;98577.38;;;22.24;77.48
77881;BME280;67077;50.298;18.996;2023-08-21T07:37:04;98577.70;;;22.24;77.46
77881;BME280;67077;50.298;18.996;2023-08-21T07:39:33;98582.15;;;22.21;77.71
77881;BME280;67077;50.298;18.996;2023-08-21T07:42:01;98577.46;;;22.15;78.18
77881;BME280;67077;50.298;18.996;2023-08-21T07:44:29;98576.54;;;22.12;78.23
77881;BME280;67077;50.298;18.996;2023-08-21T07:46:57;98581.27;;;22.12;78.31
77881;BME280;67077;50.298;18.996;2023-08-21T07:49:25;98582.81;;;22.12;78.43
77881;BME280;67077;50.298;18.996;2023-08-21T07:51:53;98583.98;;;22.12;78.68
77881;BME280;67077;50.298;18.996;2023-08-21T07:54:21;98586.16;;;22.14;78.91
77881;BME280;67077;50.298;18.996;2023-08-21T07:56:50;98581.86;;;22.14;78.87
77881;BME280;67077;50.298;18.996;2023-08-21T07:59:18;98572.84;;;22.15;79.08
77881;BME280;67077;50.298;18.996;2023-08-21T08:01:47;98573.80;;;22.19;78.89
77881;BME280;67077;50.298;18.996;2023-08-21T08:04:16;98580.77;;;22.27;78.95
77881;BME280;67077;50.298;18.996;2023-08-21T08:06:44;98582.02;;;22.39;78.48
77881;BME280;67077;50.298;18.996;2023-08-21T08:09:12;98576.88;;;22.51;78.30
77881;BME280;67077;50.298;18.996;2023-08-21T08:11:40;98575.64;;;22.62;78.25
77881;BME280;67077;50.298;18.996;2023-08-21T08:14:08;98570.90;;;22.73;77.76
77881;BME280;67077;50.298;18.996;2023-08-21T08:16:36;98568.73;;;22.85;77.28
77881;BME280;67077;50.298;18.996;2023-08-21T08:19:05;98565.80;;;23.01;77.03
77881;BME280;67077;50.298;18.996;2023-08-21T08:21:33;98570.11;;;23.20;76.52
77881;BME280;67077;50.298;18.996;2023-08-21T08:24:01;98570.11;;;23.43;76.15
77881;BME280;67077;50.298;18.996;2023-08-21T08:26:29;98569.44;;;23.63;75.34
77881;BME280;67077;50.298;18.996;2023-08-21T08:28:57;98566.79;;;23.75;74.57
77881;BME280;67077;50.298;18.996;2023-08-21T08:31:26;98566.63;;;23.88;74.14
77881;BME280;67077;50.298;18.996;2023-08-21T08:33:56;98564.43;;;24.00;73.66
77881;BME280;67077;50.298;18.996;2023-08-21T08:36:24;98567.91;;;24.10;73.25
77881;BME280;67077;50.298;18.996;2023-08-21T08:38:54;98570.66;;;24.23;73.12
77881;BME280;67077;50.298;18.996;2023-08-21T08:41:30;98577.48;;;24.41;72.34
77881;BME280;67077;50.298;18.996;2023-08-21T08:44:04;98573.09;;;24.58;71.92
77881;BME280;67077;50.298;18.996;2023-08-21T08:46:32;98570.02;;;24.71;71.51
77881;BME280;67077;50.298;18.996;2023-08-21T08:49:01;98567.09;;;24.86;71.21
77881;BME280;67077;50.298;18.996;2023-08-21T08:51:31;98566.76;;;25.01;70.47
77881;BME280;67077;50.298;18.996;2023-08-21T08:54:03;98572.79;;;25.15;69.90
77881;BME280;67077;50.298;18.996;2023-08-21T08:56:31;98575.02;;;25.36;69.47
77881;BME280;67077;50.298;18.996;2023-08-21T08:59:00;98574.14;;;25.57;68.89
77881;BME280;67077;50.298;18.996;2023-08-21T09:01:28;98569.94;;;25.70;68.29
77881;BME280;67077;50.298;18.996;2023-08-21T09:03:58;98569.51;;;25.72;67.86
77881;BME280;67077;50.298;18.996;2023-08-21T09:06:27;98567.62;;;25.76;67.85
77881;BME280;67077;50.298;18.996;2023-08-21T09:08:56;98567.98;;;25.88;67.35
77881;BME280;67077;50.298;18.996;2023-08-21T09:11:26;98565.27;;;25.92;66.94
77881;BME280;67077;50.298;18.996;2023-08-21T09:13:55;98560.47;;;25.90;66.76
77881;BME280;67077;50.298;18.996;2023-08-21T09:16:24;98548.88;;;25.82;66.69
77881;BME280;67077;50.298;18.996;2023-08-21T09:18:55;98548.03;;;25.83;67.06
77881;BME280;67077;50.298;18.996;2023-08-21T09:21:27;98548.77;;;25.77;67.08
77881;BME280;67077;50.298;18.996;2023-08-21T09:23:58;98543.80;;;25.74;67.00
77881;BME280;67077;50.298;18.996;2023-08-21T09:26:27;98545.02;;;25.72;66.99
77881;BME280;67077;50.298;18.996;2023-08-21T09:28:59;98544.58;;;25.76;67.02
77881;BME280;67077;50.298;18.996;2023-08-21T09:31:31;98546.71;;;25.80;66.55
77881;BME280;67077;50.298;18.996;2023-08-21T09:34:02;98551.63;;;25.94;66.63
77881;BME280;67077;50.298;18.996;2023-08-21T09:36:33;98548.77;;;26.12;65.89
77881;BME280;67077;50.298;18.996;2023-08-21T09:39:02;98543.65;;;26.28;65.89
77881;BME280;67077;50.298;18.996;2023-08-21T09:41:33;98537.00;;;26.40;65.38
77881;BME280;67077;50.298;18.996;2023-08-21T09:44:02;98526.50;;;26.52;65.44
77881;BME280;67077;50.298;18.996;2023-08-21T09:46:34;98523.92;;;26.72;65.24
77881;BME280;67077;50.298;18.996;2023-08-21T09:49:02;98522.61;;;26.76;64.77
77881;BME280;67077;50.298;18.996;2023-08-21T09:51:31;98522.77;;;26.88;64.02
77881;BME280;67077;50.298;18.996;2023-08-21T09:54:00;98522.98;;;27.02;63.62
77881;BME280;67077;50.298;18.996;2023-08-21T09:56:31;98521.14;;;27.13;62.29
77881;BME280;67077;50.298;18.996;2023-08-21T09:59:00;98527.42;;;27.18;62.66
77881;BME280;67077;50.298;18.996;2023-08-21T10:01:28;98525.84;;;27.27;62.53
77881;BME280;67077;50.298;18.996;2023-08-21T10:04:00;98529.45;;;27.40;62.21
77881;BME280;67077;50.298;18.996;2023-08-21T10:06:31;98525.17;;;27.56;61.66
77881;BME280;67077;50.298;18.996;2023-08-21T10:09:00;98524.84;;;27.79;61.10
77881;BME280;67077;50.298;18.996;2023-08-21T10:11:29;98524.00;;;28.03;60.35
77881;BME280;67077;50.298;18.996;2023-08-21T10:13:58;98523.80;;;28.21;59.66
77881;BME280;67077;50.298;18.996;2023-08-21T10:16:26;98519.59;;;28.37;59.29
77881;BME280;67077;50.298;18.996;2023-08-21T10:18:54;98520.14;;;28.57;58.93
77881;BME280;67077;50.298;18.996;2023-08-21T10:21:22;98515.97;;;28.76;58.57
77881;BME280;67077;50.298;18.996;2023-08-21T10:23:55;98516.05;;;28.91;58.17
77881;BME280;67077;50.298;18.996;2023-08-21T10:26:25;98513.11;;;29.00;57.56
77881;BME280;67077;50.298;18.996;2023-08-21T10:28:57;98509.23;;;29.04;57.08
77881;BME280;67077;50.298;18.996;2023-08-21T10:31:27;98511.43;;;29.01;56.92
77881;BME280;67077;50.298;18.996;2023-08-21T10:33:56;98509.61;;;28.98;57.11
77881;BME280;67077;50.298;18.996;2023-08-21T10:39:28;98516.42;;;28.79;57.54
77881;BME280;67077;50.298;18.996;2023-08-21T10:47:17;98520.55;;;28.64;57.42
77881;BME280;67077;50.298;18.996;2023-08-21T10:49:54;98516.63;;;28.54;57.29
77881;BME280;67077;50.298;18.996;2023-08-21T10:52:26;98514.73;;;28.49;57.78
77881;BME280;67077;50.298;18.996;2023-08-21T10:54:57;98514.55;;;28.51;57.98
77881;BME280;67077;50.298;18.996;2023-08-21T10:57:27;98504.88;;;28.57;57.92
77881;BME280;67077;50.298;18.996;2023-08-21T11:00:03;98493.02;;;28.61;56.91
77881;BME280;67077;50.298;18.996;2023-08-21T11:02:42;98488.96;;;28.63;56.75
77881;BME280;67077;50.298;18.996;2023-08-21T11:05:13;98489.95;;;28.62;57.55
77881;BME280;67077;50.298;18.996;2023-08-21T11:07:48;98482.76;;;28.69;58.13
77881;BME280;67077;50.298;18.996;2023-08-21T11:10:21;98484.55;;;28.70;57.84
77881;BME280;67077;50.298;18.996;2023-08-21T11:12:56;98485.89;;;28.70;57.42
77881;BME280;67077;50.298;18.996;2023-08-21T11:15:26;98488.87;;;28.62;56.52
77881;BME280;67077;50.298;18.996;2023-08-21T11:17:56;98492.11;;;28.60;56.55
77881;BME280;67077;50.298;18.996;2023-08-21T11:20:32;98495.48;;;28.66;56.53
77881;BME280;67077;50.298;18.996;2023-08-21T11:23:03;98497.45;;;28.69;56.10
77881;BME280;67077;50.298;18.996;2023-08-21T11:25:39;98496.86;;;28.72;56.04
77881;BME280;67077;50.298;18.996;2023-08-21T11:28:10;98496.64;;;28.65;56.29
77881;BME280;67077;50.298;18.996;2023-08-21T11:30:38;98502.40;;;28.53;57.05
77881;BME280;67077;50.298;18.996;2023-08-21T11:33:09;98503.62;;;28.44;57.18
77881;BME280;67077;50.298;18.996;2023-08-21T11:35:38;98504.71;;;28.38;57.63
77881;BME280;67077;50.298;18.996;2023-08-21T11:38:19;98505.59;;;28.35;58.07
77881;BME280;67077;50.298;18.996;2023-08-21T11:41:01;98505.77;;;28.37;57.72
77881;BME280;67077;50.298;18.996;2023-08-21T11:43:41;98501.85;;;28.34;57.82
77881;BME280;67077;50.298;18.996;2023-08-21T11:46:12;98499.25;;;28.31;57.86
77881;BME280;67077;50.298;18.996;2023-08-21T11:48:44;98500.74;;;28.32;57.68
77881;BME280;67077;50.298;18.996;2023-08-21T11:51:17;98499.31;;;28.37;57.77
77881;BME280;67077;50.298;18.996;2023-08-21T11:53:47;98499.61;;;28.35;57.91
77881;BME280;67077;50.298;18.996;2023-08-21T11:56:28;98494.58;;;28.37;57.93
77881;BME280;67077;50.298;18.996;2023-08-21T11:58:57;98491.81;;;28.45;57.56
77881;BME280;67077;50.298;18.996;2023-08-21T12:01:32;98497.55;;;28.40;57.62
77881;BME280;67077;50.298;18.996;2023-08-21T12:04:14;98496.20;;;28.47;57.50
77881;BME280;67077;50.298;18.996;2023-08-21T12:06:47;98492.80;;;28.56;57.16
77881;BME280;67077;50.298;18.996;2023-08-21T12:09:23;98500.33;;;28.66;56.25
77881;BME280;67077;50.298;18.996;2023-08-21T12:11:52;98495.98;;;28.72;55.77
77881;BME280;67077;50.298;18.996;2023-08-21T12:14:21;98492.96;;;28.73;55.90
77881;BME280;67077;50.298;18.996;2023-08-21T12:16:51;98494.14;;;28.72;55.37
77881;BME280;67077;50.298;18.996;2023-08-21T12:19:21;98486.40;;;28.67;55.74
77881;BME280;67077;50.298;18.996;2023-08-21T12:21:51;98489.46;;;28.72;55.72
77881;BME280;67077;50.298;18.996;2023-08-21T12:24:19;98489.75;;;28.80;55.17
77881;BME280;67077;50.298;18.996;2023-08-21T12:26:48;98487.45;;;28.80;55.17
77881;BME280;67077;50.298;18.996;2023-08-21T12:29:16;98485.14;;;28.85;55.32
77881;BME280;67077;50.298;18.996;2023-08-21T12:31:45;98486.13;;;28.91;55.12
77881;BME280;67077;50.298;18.996;2023-08-21T12:34:13;98484.82;;;28.98;54.73
77881;BME280;67077;50.298;18.996;2023-08-21T12:36:41;98485.94;;;29.04;54.47
77881;BME280;67077;50.298;18.996;2023-08-21T12:39:10;98482.44;;;29.04;54.39
77881;BME280;67077;50.298;18.996;2023-08-21T12:41:38;98478.20;;;29.00;54.57
77881;BME280;67077;50.298;18.996;2023-08-21T12:44:06;98476.30;;;29.02;54.92
77881;BME280;67077;50.298;18.996;2023-08-21T12:46:37;98471.33;;;29.07;54.74
77881;BME280;67077;50.298;18.996;2023-08-21T12:49:08;98474.77;;;29.03;55.05
77881;BME280;67077;50.298;18.996;2023-08-21T12:51:37;98472.27;;;29.08;54.54
77881;BME280;67077;50.298;18.996;2023-08-21T12:54:07;98470.37;;;29.15;53.91
77881;BME280;67077;50.298;18.996;2023-08-21T12:56:37;98466.58;;;29.24;53.84
77881;BME280;67077;50.298;18.996;2023-08-21T12:59:05;98459.70;;;29.26;53.08
77881;BME280;67077;50.298;18.996;2023-08-21T13:01:44;98457.02;;;29.31;52.95
77881;BME280;67077;50.298;18.996;2023-08-21T13:04:12;98451.81;;;29.35;52.75
77881;BME280;67077;50.298;18.996;2023-08-21T13:06:40;98450.30;;;29.38;51.93
77881;BME280;67077;50.298;18.996;2023-08-21T13:09:09;98450.35;;;29.39;52.38
77881;BME280;67077;50.298;18.996;2023-08-21T13:11:38;98447.80;;;29.46;52.86